Time;durP1;ratioP1;P1;durP2;ratioP2;P2;SDS_P1;SDS_P2;PMS_P1;PMS_P2;Temp;Humidity;BMP_temperature;BMP_pressure;BME280_temperature;BME280_humidity;BME280_pressure;Samples;Min_cycle;Max_cycle;Signal;HPM_P1;HPM_P2
2023/03/27 00:00:40;;;;;;;;;;;;;;;27.02;28.94;100028.22;5039381;28;1140;-15
2023/03/27 00:03:05;;;;;;;;;;;;;;;27.14;28.55;100025.75;5048936;28;1906;-15
2023/03/27 00:05:31;;;;;;;;;;;;;;;26.57;29.51;100019.59;5055763;28;1053;-15
2023/03/27 00:07:56;;;;;;;;;;;;;;;27.01;28.81;100025.66;5049372;28;1131;-14
2023/03/27 00:10:22;;;;;;;;;;;;;;;26.99;28.65;100015.06;5058910;28;1186;-15
2023/03/27 00:12:48;;;;;;;;;;;;;;;27.31;28.29;100013.78;5048658;28;1121;-15
2023/03/27 00:15:15;;;;;;;;;;;;;;;27.32;27.88;100012.75;5055407;28;1233;-15
2023/03/27 00:17:48;;;;;;;;;;;;;;;26.78;28.90;100011.44;5048589;28;1056;-14
2023/03/27 00:20:14;;;;;;;;;;;;;;;27.06;28.48;100012.44;5052344;28;1060;-15
2023/03/27 00:22:39;;;;;;;;;;;;;;;27.31;28.31;100011.91;5050054;28;1906;-14
2023/03/27 00:25:05;;;;;;;;;;;;;;;27.42;27.51;100013.19;5041478;28;1036;-15
2023/03/27 00:27:31;;;;;;;;;;;;;;;26.74;28.91;100003.94;5044928;28;1183;-14
2023/03/27 00:29:57;;;;;;;;;;;;;;;26.82;28.71;100001.09;5058579;28;1147;-14
2023/03/27 00:32:22;;;;;;;;;;;;;;;27.06;28.69;100008.91;5058853;28;1087;-15
2023/03/27 00:34:48;;;;;;;;;;;;;;;27.33;27.95;99999.03;5041117;28;1097;-14
2023/03/27 00:37:13;;;;;;;;;;;;;;;27.67;27.34;100009.09;5049122;28;1142;-15
2023/03/27 00:39:40;;;;;;;;;;;;;;;26.90;28.31;100014.41;5035906;28;1146;-14
2023/03/27 00:42:07;;;;;;;;;;;;;;;26.75;28.53;100002.91;5049148;28;1119;-15
2023/03/27 00:44:33;;;;;;;;;;;;;;;27.08;28.30;100013.06;5053200;28;1922;-15
2023/03/27 00:47:01;;;;;;;;;;;;;;;27.38;27.79;100009.22;5031449;28;1893;-15
2023/03/27 00:49:28;;;;;;;;;;;;;;;27.42;27.30;99996.16;5026910;28;1025;-14
2023/03/27 00:51:56;;;;;;;;;;;;;;;27.05;28.31;99999.97;5039948;28;1319;-14
2023/03/27 00:54:25;;;;;;;;;;;;;;;26.90;28.63;99990.13;5039962;28;1596;-15
2023/03/27 00:56:54;;;;;;;;;;;;;;;27.07;28.17;99980.88;5040869;28;1134;-15
2023/03/27 00:59:20;;;;;;;;;;;;;;;27.29;27.88;99987.00;5057825;28;1254;-15
2023/03/27 01:01:46;;;;;;;;;;;;;;;27.34;27.16;99984.47;5046771;28;1218;-15
2023/03/27 01:04:12;;;;;;;;;;;;;;;26.89;28.56;99985.75;5029461;28;1906;-15
2023/03/27 01:06:37;;;;;;;;;;;;;;;26.98;28.42;99977.47;5057931;28;1079;-15
2023/03/27 01:09:03;;;;;;;;;;;;;;;27.11;27.95;99965.97;5022204;28;1127;-14
2023/03/27 01:11:35;;;;;;;;;;;;;;;27.42;27.83;99966.44;5038166;28;1116;-15
2023/03/27 01:14:19;;;;;;;;;;;;;;;27.48;26.74;99962.91;5038564;28;1211;-15
2023/03/27 01:17:05;;;;;;;;;;;;;;;26.84;28.13;99958.53;5056205;28;1050;-15
2023/03/27 01:19:40;;;;;;;;;;;;;;;27.06;28.10;99963.03;5031061;28;1304;-14
2023/03/27 01:22:08;;;;;;;;;;;;;;;27.22;27.67;99959.97;5057938;28;960;-15
2023/03/27 01:24:52;;;;;;;;;;;;;;;27.38;26.82;99958.75;5044314;28;1910;-15
2023/03/27 01:27:36;;;;;;;;;;;;;;;26.73;28.43;99954.53;5048527;28;1195;-15
2023/03/27 01:30:02;;;;;;;;;;;;;;;26.89;28.03;99952.53;5039653;28;1225;-15
2023/03/27 01:32:48;;;;;;;;;;;;;;;27.04;28.19;99955.13;5047518;28;1315;-15
2023/03/27 01:35:32;;;;;;;;;;;;;;;27.32;27.77;99956.88;5027638;28;1484;-15
2023/03/27 01:38:02;;;;;;;;;;;;;;;27.32;26.69;99946.06;5035844;28;1155;-15
2023/03/27 01:40:28;;;;;;;;;;;;;;;26.76;28.29;99948.75;5048153;28;1104;-14
2023/03/27 01:43:10;;;;;;;;;;;;;;;26.92;27.92;99938.66;5013300;28;1902;-15
2023/03/27 01:45:39;;;;;;;;;;;;;;;27.20;27.99;99935.03;4996951;28;1227;-15
2023/03/27 01:48:11;;;;;;;;;;;;;;;27.46;27.25;99933.41;4996850;28;1050;-15
2023/03/27 01:50:36;;;;;;;;;;;;;;;26.95;27.76;99934.69;5010673;28;1255;-15
2023/03/27 01:53:23;;;;;;;;;;;;;;;26.63;28.03;99937.88;5014390;28;1155;-15
2023/03/27 01:55:49;;;;;;;;;;;;;;;27.05;28.09;99932.50;4996545;28;1259;-14
2023/03/27 01:58:18;;;;;;;;;;;;;;;27.30;27.70;99936.50;4990525;28;1148;-14
2023/03/27 02:00:45;;;;;;;;;;;;;;;27.37;26.34;99924.69;5003369;28;1119;-15
2023/03/27 02:03:28;;;;;;;;;;;;;;;26.72;27.96;99923.22;5016422;28;1923;-14
2023/03/27 02:05:55;;;;;;;;;;;;;;;26.87;28.22;99923.06;5009400;28;1060;-15
2023/03/27 02:08:31;;;;;;;;;;;;;;;27.10;27.70;99923.78;4994201;28;1212;-15
2023/03/27 02:11:06;;;;;;;;;;;;;;;27.51;27.34;99917.44;5006160;28;1353;-15
2023/03/27 02:13:35;;;;;;;;;;;;;;;27.32;27.02;99932.56;5012419;28;1174;-15
2023/03/27 02:16:01;;;;;;;;;;;;;;;26.56;28.21;99926.25;5032085;28;1336;-15
2023/03/27 02:18:34;;;;;;;;;;;;;;;26.85;27.80;99925.13;5015876;28;1305;-14
2023/03/27 02:21:01;;;;;;;;;;;;;;;27.02;27.91;99911.31;4999671;28;1164;-14
2023/03/27 02:23:29;;;;;;;;;;;;;;;27.53;27.04;99919.09;5017614;28;1977;-15
2023/03/27 02:25:55;;;;;;;;;;;;;;;27.11;27.41;99909.25;5015554;28;1321;-15
2023/03/27 02:28:29;;;;;;;;;;;;;;;26.44;28.48;99899.84;4998574;28;1153;-15
2023/03/27 02:30:57;;;;;;;;;;;;;;;26.95;27.84;99902.31;5032051;28;1229;-15
2023/03/27 02:33:26;;;;;;;;;;;;;;;27.25;27.73;99894.75;5032054;28;1148;-14
2023/03/27 02:35:52;;;;;;;;;;;;;;;27.56;26.98;99892.47;5015025;28;1443;-15
2023/03/27 02:38:22;;;;;;;;;;;;;;;26.94;27.72;99888.00;5015444;28;1151;-14
2023/03/27 02:40:55;;;;;;;;;;;;;;;26.68;27.89;99886.00;5019795;28;1108;-15
2023/03/27 02:43:42;;;;;;;;;;;;;;;27.13;27.79;99889.13;5047090;28;1975;-14
2023/03/27 02:46:16;;;;;;;;;;;;;;;27.38;26.99;99880.44;5037844;28;1317;-14
2023/03/27 02:48:46;;;;;;;;;;;;;;;27.33;26.60;99874.81;5022080;28;1385;-15
2023/03/27 02:51:38;;;;;;;;;;;;;;;26.69;27.97;99869.66;5042887;28;1143;-14
2023/03/27 02:54:03;;;;;;;;;;;;;;;26.98;27.77;99869.53;5022109;28;1361;-14
2023/03/27 02:56:32;;;;;;;;;;;;;;;27.04;27.55;99874.16;5038094;28;1277;-15
2023/03/27 02:59:02;;;;;;;;;;;;;;;27.55;27.02;99863.81;5021609;28;1267;-14
2023/03/27 03:01:37;;;;;;;;;;;;;;;27.22;26.88;99862.78;5011883;28;1158;-14
2023/03/27 03:04:18;;;;;;;;;;;;;;;26.63;27.69;99856.94;5010325;28;1910;-15
2023/03/27 03:07:05;;;;;;;;;;;;;;;26.86;27.31;99856.63;5051773;28;1238;-15
2023/03/27 03:09:31;;;;;;;;;;;;;;;27.27;27.13;99862.16;5018176;28;1141;-15
2023/03/27 03:11:57;;;;;;;;;;;;;;;27.47;26.65;99855.94;5021928;28;1196;-15
2023/03/27 03:14:24;;;;;;;;;;;;;;;27.37;26.29;99853.63;5027650;28;1235;-15
2023/03/27 03:16:50;;;;;;;;;;;;;;;26.38;28.07;99852.91;5053089;28;1065;-15
2023/03/27 03:19:16;;;;;;;;;;;;;;;26.93;27.01;99847.69;5055780;28;1107;-14
2023/03/27 03:21:42;;;;;;;;;;;;;;;27.09;26.65;99844.66;5042029;28;1147;-15
2023/03/27 03:24:09;;;;;;;;;;;;;;;27.53;26.14;99854.28;5037956;28;1902;-15
2023/03/27 03:26:35;;;;;;;;;;;;;;;27.21;26.12;99857.56;5037753;28;1222;-14
2023/03/27 03:29:01;;;;;;;;;;;;;;;26.56;27.54;99851.53;5037650;28;1195;-15
2023/03/27 03:31:42;;;;;;;;;;;;;;;27.07;26.90;99857.53;5034196;28;1191;-15
2023/03/27 03:34:11;;;;;;;;;;;;;;;27.04;26.90;99854.41;5048580;28;1132;-15
2023/03/27 03:36:37;;;;;;;;;;;;;;;27.39;25.95;99854.28;5035898;28;1100;-14
2023/03/27 03:39:03;;;;;;;;;;;;;;;27.09;26.49;99857.34;5030465;28;1918;-15
2023/03/27 03:41:29;;;;;;;;;;;;;;;26.89;27.15;99867.00;5033726;28;1313;-15
2023/03/27 03:43:59;;;;;;;;;;;;;;;26.83;27.43;99856.19;5024464;28;1910;-15
2023/03/27 03:46:24;;;;;;;;;;;;;;;27.12;27.35;99863.16;5048218;28;1072;-14
2023/03/27 03:48:50;;;;;;;;;;;;;;;26.78;26.79;99876.53;5031982;28;1300;-15
2023/03/27 03:51:15;;;;;;;;;;;;;;;25.50;26.50;99868.44;5035354;28;1329;-17
2023/03/27 03:53:41;;;;;;;;;;;;;;;25.10;28.26;99868.88;5030007;28;1273;-15
2023/03/27 03:56:07;;;;;;;;;;;;;;;25.72;26.03;99865.75;5055509;28;1132;-15
2023/03/27 03:58:32;;;;;;;;;;;;;;;25.99;24.85;99871.31;5024418;28;1143;-15
2023/03/27 04:01:02;;;;;;;;;;;;;;;26.36;24.08;99883.81;5018233;28;1131;-15
2023/03/27 04:03:35;;;;;;;;;;;;;;;26.57;22.84;99868.56;5032615;28;1984;-15
2023/03/27 04:06:04;;;;;;;;;;;;;;;26.50;22.71;99866.66;5036008;28;1749;-15
2023/03/27 04:08:30;;;;;;;;;;;;;;;25.20;22.75;99868.56;5022479;28;1135;-15
2023/03/27 04:11:18;;;;;;;;;;;;;;;23.96;24.30;99860.94;5029620;28;1379;-16
2023/03/27 04:14:03;;;;;;;;;;;;;;;25.10;23.54;99857.28;5043905;28;1550;-15
2023/03/27 04:16:40;;;;;;;;;;;;;;;26.21;22.25;99859.66;5036968;28;1186;-15
2023/03/27 04:19:19;;;;;;;;;;;;;;;27.16;21.15;99854.66;5038693;28;1218;-15
2023/03/27 04:21:53;;;;;;;;;;;;;;;25.49;23.88;99852.47;5034307;28;1362;-15
2023/03/27 04:24:19;;;;;;;;;;;;;;;25.44;24.56;99864.63;5021302;28;1906;-15
2023/03/27 04:26:47;;;;;;;;;;;;;;;26.44;23.44;99872.03;5044582;28;1085;-15
2023/03/27 04:29:15;;;;;;;;;;;;;;;26.74;23.23;99880.66;5044767;28;1155;-15
2023/03/27 04:31:56;;;;;;;;;;;;;;;27.18;22.87;99884.94;5058883;28;1023;-15
2023/03/27 04:34:45;;;;;;;;;;;;;;;26.84;23.65;99882.16;5033467;28;1273;-15
2023/03/27 04:37:11;;;;;;;;;;;;;;;26.36;24.23;99873.03;5060744;28;1545;-15
2023/03/27 04:39:45;;;;;;;;;;;;;;;26.71;24.25;99870.25;5038874;28;1155;-15
2023/03/27 04:42:11;;;;;;;;;;;;;;;26.92;24.17;99871.19;5017738;28;1219;-15
2023/03/27 04:44:37;;;;;;;;;;;;;;;27.39;23.42;99856.97;5026142;28;1981;-15
2023/03/27 04:47:03;;;;;;;;;;;;;;;26.95;24.19;99843.78;5036366;28;1092;-15
2023/03/27 04:49:29;;;;;;;;;;;;;;;26.73;24.64;99841.22;5023794;28;1136;-15
2023/03/27 04:52:02;;;;;;;;;;;;;;;26.99;24.58;99834.22;5036648;28;1130;-15
2023/03/27 04:54:30;;;;;;;;;;;;;;;27.14;24.46;99833.25;5023904;28;1150;-14
2023/03/27 04:56:56;;;;;;;;;;;;;;;27.39;24.35;99824.56;5028296;28;1271;-15
2023/03/27 04:59:22;;;;;;;;;;;;;;;26.93;24.92;99826.94;5023415;28;1016;-15
2023/03/27 05:02:07;;;;;;;;;;;;;;;26.62;25.40;99831.03;5030213;28;1238;-15
2023/03/27 05:04:42;;;;;;;;;;;;;;;27.11;24.76;99825.59;5026027;28;1914;-16
2023/03/27 05:07:18;;;;;;;;;;;;;;;27.21;24.85;99834.09;5033303;28;1349;-15
2023/03/27 05:09:44;;;;;;;;;;;;;;;27.42;24.71;99834.09;5033811;28;1221;-15
2023/03/27 05:12:10;;;;;;;;;;;;;;;27.28;24.88;99827.88;5031278;28;1164;-14
2023/03/27 05:14:47;;;;;;;;;;;;;;;26.51;25.64;99825.16;5031881;28;1419;-15
2023/03/27 05:17:28;;;;;;;;;;;;;;;26.92;24.89;99829.84;5028140;28;932;-15
2023/03/27 05:19:55;;;;;;;;;;;;;;;27.14;24.18;99817.06;5017197;28;1234;-15
2023/03/27 05:22:21;;;;;;;;;;;;;;;27.54;23.77;99818.13;5024672;28;1080;-15
2023/03/27 05:24:54;;;;;;;;;;;;;;;26.96;24.42;99806.84;5023139;28;1906;-15
2023/03/27 05:27:20;;;;;;;;;;;;;;;26.94;24.66;99798.94;5033990;28;1202;-16
2023/03/27 05:29:49;;;;;;;;;;;;;;;27.31;24.65;99812.06;5022094;28;1424;-15
2023/03/27 05:32:15;;;;;;;;;;;;;;;27.55;24.09;99807.09;5028326;28;1577;-15
2023/03/27 05:34:49;;;;;;;;;;;;;;;26.87;25.13;99806.19;5022660;28;1215;-15
2023/03/27 05:37:16;;;;;;;;;;;;;;;26.69;24.52;99791.44;5024638;28;1246;-16
2023/03/27 05:40:07;;;;;;;;;;;;;;;27.03;24.72;99805.00;5026186;28;1148;-15
2023/03/27 05:42:33;;;;;;;;;;;;;;;27.04;24.89;99790.47;5016834;28;1225;-16
2023/03/27 05:44:59;;;;;;;;;;;;;;;27.06;25.10;99793.78;5021579;28;1905;-17
2023/03/27 05:47:24;;;;;;;;;;;;;;;27.26;24.54;99799.19;5004979;28;1158;-20
2023/03/27 05:49:52;;;;;;;;;;;;;;;26.97;24.83;99785.03;5027381;28;1343;-20
2023/03/27 05:52:18;;;;;;;;;;;;;;;27.66;24.23;99794.00;5035748;28;1581;-20
2023/03/27 05:54:44;;;;;;;;;;;;;;;27.41;24.48;99797.34;5032136;28;1238;-21
2023/03/27 05:57:10;;;;;;;;;;;;;;;27.37;24.51;99788.81;5035493;28;1465;-20
2023/03/27 05:59:37;;;;;;;;;;;;;;;27.43;24.81;99782.59;5030740;28;1063;-21
2023/03/27 06:02:20;;;;;;;;;;;;;;;27.42;24.92;99777.38;5027759;28;1626;-21
2023/03/27 06:04:52;;;;;;;;;;;;;;;27.35;25.02;99767.44;5020578;28;2176;-28
2023/03/27 06:07:37;;;;;;;;;;;;;;;27.50;24.83;99760.97;5018845;28;1260;-29
2023/03/27 06:10:06;;;;;;;;;;;;;;;27.69;24.62;99758.47;5033587;28;1314;-28
2023/03/27 06:12:32;;;;;;;;;;;;;;;27.62;24.89;99756.59;5018665;28;1077;-27
2023/03/27 06:15:08;;;;;;;;;;;;;;;27.11;25.58;99747.31;5021721;28;1332;-29
2023/03/27 06:17:40;;;;;;;;;;;;;;;27.37;25.40;99743.75;5032101;28;1253;-29
2023/03/27 06:20:10;;;;;;;;;;;;;;;27.32;25.13;99734.59;5031366;28;1226;-30
2023/03/27 06:22:46;;;;;;;;;;;;;;;27.65;24.94;99727.47;5035518;28;1231;-29
2023/03/27 06:25:13;;;;;;;;;;;;;;;27.47;24.99;99721.72;5034630;28;1918;-27
2023/03/27 06:27:40;;;;;;;;;;;;;;;27.48;25.03;99711.72;5023438;28;1207;-26
2023/03/27 06:30:06;;;;;;;;;;;;;;;27.51;25.31;99714.00;5026743;28;1219;-28
2023/03/27 06:32:35;;;;;;;;;;;;;;;27.41;25.58;99711.72;5022085;28;1220;-28
2023/03/27 06:35:08;;;;;;;;;;;;;;;27.36;25.25;99723.16;5017877;28;1343;-26
2023/03/27 06:38:03;;;;;;;;;;;;;;;27.35;25.77;99726.94;5020355;28;1348;-27
2023/03/27 06:40:30;;;;;;;;;;;;;;;27.53;25.42;99728.13;5034949;28;1162;-28
2023/03/27 06:42:59;;;;;;;;;;;;;;;27.15;26.14;99718.84;5018715;28;1973;-31
2023/03/27 06:45:45;;;;;;;;;;;;;;;27.69;25.29;99712.56;5018754;28;1148;-29
2023/03/27 06:48:13;;;;;;;;;;;;;;;27.46;25.68;99705.72;5055924;28;1053;-29
2023/03/27 06:50:41;;;;;;;;;;;;;;;27.21;26.10;99707.19;5044972;28;1592;-27
2023/03/27 06:53:06;;;;;;;;;;;;;;;27.53;25.46;99700.31;5042810;28;1251;-27
2023/03/27 06:55:41;;;;;;;;;;;;;;;27.73;25.15;99697.56;5034627;28;1110;-30
2023/03/27 06:58:07;;;;;;;;;;;;;;;27.55;25.44;99703.59;5055335;28;1148;-27
2023/03/27 07:00:34;;;;;;;;;;;;;;;27.40;25.97;99701.97;5037906;28;1044;-29
2023/03/27 07:03:26;;;;;;;;;;;;;;;27.23;26.23;99697.03;5014150;28;1909;-27
2023/03/27 07:05:57;;;;;;;;;;;;;;;27.26;26.14;99696.59;5040755;28;1130;-29
2023/03/27 07:08:26;;;;;;;;;;;;;;;27.26;26.22;99695.75;5037922;28;1572;-28
2023/03/27 07:10:54;;;;;;;;;;;;;;;27.37;25.88;99688.91;5034914;28;1427;-27
2023/03/27 07:13:20;;;;;;;;;;;;;;;27.39;26.25;99686.84;5023095;28;1152;-27
2023/03/27 07:15:46;;;;;;;;;;;;;;;27.43;26.27;99682.66;5034188;28;1154;-29
2023/03/27 07:18:14;;;;;;;;;;;;;;;27.53;25.89;99686.81;5037494;28;1159;-28
2023/03/27 07:20:47;;;;;;;;;;;;;;;27.53;25.89;99676.00;5028473;28;1124;-29
2023/03/27 07:23:16;;;;;;;;;;;;;;;27.56;25.60;99675.56;5037339;28;1910;-30
2023/03/27 07:26:08;;;;;;;;;;;;;;;27.56;25.92;99679.09;5049810;28;1419;-30
2023/03/27 07:28:56;;;;;;;;;;;;;;;27.41;25.98;99673.94;5018213;28;1279;-29
2023/03/27 07:31:21;;;;;;;;;;;;;;;27.18;26.63;99674.38;5030881;28;1127;-30
2023/03/27 07:33:47;;;;;;;;;;;;;;;27.18;26.15;99666.28;5018424;28;1234;-28
2023/03/27 07:36:13;;;;;;;;;;;;;;;27.24;26.42;99668.97;5018217;28;1347;-29
2023/03/27 07:39:00;;;;;;;;;;;;;;;27.16;26.63;99669.19;5044463;28;1170;-28
2023/03/27 07:41:30;;;;;;;;;;;;;;;27.21;26.33;99655.91;5024120;28;1427;-31
2023/03/27 07:43:58;;;;;;;;;;;;;;;26.80;26.83;99659.63;5055778;28;1910;-27
2023/03/27 07:46:29;;;;;;;;;;;;;;;26.78;26.82;99663.38;5027409;28;1061;-29
2023/03/27 07:49:00;;;;;;;;;;;;;;;26.75;26.59;99650.31;5017920;28;1527;-28
2023/03/27 07:51:26;;;;;;;;;;;;;;;26.99;26.18;99645.31;5030864;28;1537;-27
2023/03/27 07:53:57;;;;;;;;;;;;;;;27.00;26.41;99638.88;5039768;28;1577;-20
2023/03/27 07:56:36;;;;;;;;;;;;;;;26.88;26.42;99630.59;5051781;28;1362;-19
2023/03/27 07:59:26;;;;;;;;;;;;;;;26.80;26.52;99635.34;5028591;28;1376;-12
2023/03/27 08:01:54;;;;;;;;;;;;;;;26.67;26.65;99631.63;5039270;28;1227;-12
2023/03/27 08:04:24;;;;;;;;;;;;;;;26.25;26.46;99640.69;5021343;28;1898;-12
2023/03/27 08:07:04;;;;;;;;;;;;;;;26.42;25.89;99632.25;5021432;28;1263;-12
2023/03/27 08:09:30;;;;;;;;;;;;;;;26.24;26.89;99633.63;5043461;28;1523;-12
2023/03/27 08:11:56;;;;;;;;;;;;;;;26.21;26.49;99625.13;5023547;28;1065;-12
2023/03/27 08:14:25;;;;;;;;;;;;;;;26.46;26.49;99620.00;5023741;28;1147;-12
2023/03/27 08:16:52;;;;;;;;;;;;;;;26.48;26.24;99612.53;5041056;28;1337;-12
2023/03/27 08:19:24;;;;;;;;;;;;;;;26.22;26.64;99581.78;5027715;28;1440;-12
2023/03/27 08:21:54;;;;;;;;;;;;;;;26.67;25.85;99587.63;5037806;28;1392;-12
2023/03/27 08:24:20;;;;;;;;;;;;;;;26.68;25.92;99587.44;5034984;28;1894;-12
2023/03/27 08:27:02;;;;;;;;;;;;;;;26.65;26.13;99574.38;5047538;28;1734;-12
2023/03/27 08:29:29;;;;;;;;;;;;;;;26.52;26.46;99570.66;5026853;28;1385;-12
2023/03/27 08:31:55;;;;;;;;;;;;;;;26.67;26.14;99569.59;5038565;28;1000;-12
2023/03/27 08:34:21;;;;;;;;;;;;;;;26.62;26.61;99562.13;5039926;28;1461;-12
2023/03/27 08:36:51;;;;;;;;;;;;;;;26.57;26.51;99561.94;5040686;28;1095;-12
2023/03/27 08:39:17;;;;;;;;;;;;;;;26.37;26.87;99556.53;5058652;28;1020;-12
2023/03/27 08:42:13;;;;;;;;;;;;;;;26.86;26.13;99557.09;5039051;28;1176;-12
2023/03/27 08:44:38;;;;;;;;;;;;;;;26.68;26.30;99548.81;5020772;28;1913;-12
2023/03/27 08:47:33;;;;;;;;;;;;;;;26.60;26.70;99542.63;5035595;28;1156;-13
2023/03/27 08:50:28;;;;;;;;;;;;;;;26.50;26.63;99540.34;5034444;28;1299;-12
2023/03/27 08:53:06;;;;;;;;;;;;;;;26.35;26.80;99545.13;5017578;28;1387;-12
2023/03/27 08:55:37;;;;;;;;;;;;;;;26.31;26.85;99538.47;5023822;28;1350;-12
2023/03/27 08:58:23;;;;;;;;;;;;;;;26.23;26.88;99532.22;5052752;28;1158;-12
2023/03/27 09:00:57;;;;;;;;;;;;;;;26.36;26.80;99536.81;5029022;28;1288;-12
2023/03/27 09:03:36;;;;;;;;;;;;;;;26.33;26.65;99531.84;5040122;28;1969;-12
2023/03/27 09:06:07;;;;;;;;;;;;;;;26.17;26.83;99514.19;5038566;28;1230;-12
2023/03/27 09:08:37;;;;;;;;;;;;;;;26.35;26.80;99513.59;5010637;28;1555;-11
2023/03/27 09:11:18;;;;;;;;;;;;;;;26.16;27.29;99502.56;5039790;28;1231;-11
2023/03/27 09:13:52;;;;;;;;;;;;;;;26.39;26.69;99497.84;5039919;28;1616;-11
2023/03/27 09:16:21;;;;;;;;;;;;;;;26.89;26.37;99502.72;5043122;28;1295;-11
2023/03/27 09:19:09;;;;;;;;;;;;;;;26.76;26.01;99490.09;5039924;28;1176;-12
2023/03/27 09:21:44;;;;;;;;;;;;;;;26.16;27.08;99489.09;5009933;28;1132;-11
2023/03/27 09:24:33;;;;;;;;;;;;;;;26.69;26.43;99486.59;5028760;28;1977;-12
2023/03/27 09:27:31;;;;;;;;;;;;;;;26.52;26.71;99487.03;5030977;28;1144;-11
2023/03/27 09:30:18;;;;;;;;;;;;;;;26.45;26.96;99475.44;5039477;28;1293;-12
2023/03/27 09:32:54;;;;;;;;;;;;;;;26.74;26.76;99456.28;5038826;28;1277;-11
2023/03/27 09:35:19;;;;;;;;;;;;;;;26.51;26.84;99452.16;5039604;28;1103;-12
2023/03/27 09:37:52;;;;;;;;;;;;;;;26.73;26.95;99452.75;5030607;28;1260;-12
2023/03/27 09:40:24;;;;;;;;;;;;;;;26.45;27.13;99434.97;5019847;28;1210;-11
2023/03/27 09:42:53;;;;;;;;;;;;;;;26.58;26.83;99436.81;5040629;28;1966;-11
2023/03/27 09:45:19;;;;;;;;;;;;;;;27.16;26.31;99439.75;5030231;28;1232;-11
2023/03/27 09:48:01;;;;;;;;;;;;;;;27.14;26.17;99439.94;5036655;28;1151;-11
2023/03/27 09:50:34;;;;;;;;;;;;;;;26.94;26.48;99426.53;5016013;28;1119;-11
2023/03/27 09:53:06;;;;;;;;;;;;;;;26.84;27.10;99436.97;5026922;28;1208;-11
2023/03/27 09:55:51;;;;;;;;;;;;;;;26.62;27.05;99423.75;5037663;28;1570;-11
2023/03/27 09:58:29;;;;;;;;;;;;;;;26.78;26.92;99420.56;5025453;28;1322;-11
2023/03/27 10:01:08;;;;;;;;;;;;;;;26.88;27.02;99413.88;5039108;28;1144;-11
2023/03/27 10:03:39;;;;;;;;;;;;;;;27.00;26.79;99401.41;5024534;28;1983;-12
2023/03/27 10:06:08;;;;;;;;;;;;;;;27.06;26.74;99393.50;5021529;28;1245;-12
2023/03/27 10:08:49;;;;;;;;;;;;;;;27.01;26.56;99394.97;5038447;28;1324;-12
2023/03/27 10:11:21;;;;;;;;;;;;;;;27.06;26.72;99382.72;5019868;28;1279;-11
2023/03/27 10:13:50;;;;;;;;;;;;;;;27.11;26.66;99388.28;5019198;28;1239;-11
2023/03/27 10:16:19;;;;;;;;;;;;;;;27.17;26.74;99373.94;5029555;28;1687;-11
2023/03/27 10:18:56;;;;;;;;;;;;;;;27.10;26.66;99373.13;5038605;28;1498;-11
2023/03/27 10:21:27;;;;;;;;;;;;;;;27.28;26.36;99371.59;5034917;28;1294;-12
2023/03/27 10:24:06;;;;;;;;;;;;;;;26.96;26.65;99351.56;5003613;28;1979;-12
2023/03/27 10:26:59;;;;;;;;;;;;;;;26.68;26.97;99363.53;5024467;28;1234;-11
2023/03/27 10:29:26;;;;;;;;;;;;;;;26.94;26.90;99363.66;5037714;28;1032;-11
2023/03/27 10:31:52;;;;;;;;;;;;;;;27.19;26.36;99366.44;5027666;28;1115;-11
2023/03/27 10:34:51;;;;;;;;;;;;;;;26.55;27.24;99360.91;5055665;28;1441;-11
2023/03/27 10:37:56;;;;;;;;;;;;;;;26.29;27.06;99339.19;5028944;28;1322;-11
2023/03/27 10:40:50;;;;;;;;;;;;;;;25.99;27.60;99329.69;5027142;28;1414;-11
2023/03/27 10:43:42;;;;;;;;;;;;;;;26.07;26.90;99320.59;5042851;28;1905;-11
2023/03/27 10:46:12;;;;;;;;;;;;;;;26.00;27.21;99303.59;5037412;28;1399;-12
2023/03/27 10:48:42;;;;;;;;;;;;;;;26.24;26.92;99304.75;5018160;28;1721;-11
2023/03/27 10:51:33;;;;;;;;;;;;;;;26.15;27.43;99300.66;5044159;28;1297;-11
2023/03/27 10:54:03;;;;;;;;;;;;;;;26.50;27.41;99297.66;5017166;28;1419;-11
2023/03/27 10:56:51;;;;;;;;;;;;;;;26.79;28.33;99297.31;5033369;28;1233;-11
2023/03/27 10:59:29;;;;;;;;;;;;;;;26.13;33.41;99290.09;5018957;28;1295;-11
2023/03/27 11:02:16;;;;;;;;;;;;;;;26.24;32.79;99274.31;5040485;28;1334;-11
2023/03/27 11:04:50;;;;;;;;;;;;;;;26.15;31.16;99279.09;5020661;28;1910;-11
2023/03/27 11:07:21;;;;;;;;;;;;;;;26.75;28.19;99280.72;5010442;28;1120;-11
2023/03/27 11:09:52;;;;;;;;;;;;;;;26.70;28.49;99261.66;5024057;28;1334;-11
2023/03/27 11:12:18;;;;;;;;;;;;;;;26.90;29.42;99253.44;5009893;28;1685;-11
2023/03/27 11:15:00;;;;;;;;;;;;;;;26.96;29.36;99253.63;5018039;28;1213;-11
2023/03/27 11:17:31;;;;;;;;;;;;;;;26.93;29.74;99254.88;5030468;28;1382;-11
2023/03/27 11:20:35;;;;;;;;;;;;;;;26.83;29.23;99257.22;5020068;28;1483;-11
2023/03/27 11:23:21;;;;;;;;;;;;;;;26.40;29.32;99249.59;5028329;28;1906;-12
2023/03/27 11:26:06;;;;;;;;;;;;;;;26.90;29.04;99253.44;5032031;28;996;-11
2023/03/27 11:28:45;;;;;;;;;;;;;;;27.08;28.86;99251.88;5027592;28;1008;-11
2023/03/27 11:31:13;;;;;;;;;;;;;;;26.93;29.00;99246.78;5022214;28;1231;-11
2023/03/27 11:33:42;;;;;;;;;;;;;;;26.93;28.37;99232.44;5034467;28;1249;-11
2023/03/27 11:36:21;;;;;;;;;;;;;;;27.19;28.00;99236.88;5021887;28;1529;-11
2023/03/27 11:39:17;;;;;;;;;;;;;;;27.16;28.22;99221.09;5024064;28;1332;-11
2023/03/27 11:41:48;;;;;;;;;;;;;;;27.31;27.60;99225.34;5014897;28;1360;-11
2023/03/27 11:44:14;;;;;;;;;;;;;;;27.16;28.00;99217.59;5025553;28;1918;-11
2023/03/27 11:47:18;;;;;;;;;;;;;;;26.78;28.35;99214.72;5058985;28;1043;-11
2023/03/27 11:50:04;;;;;;;;;;;;;;;26.48;28.79;99215.31;5031123;28;1415;-11
2023/03/27 11:53:05;;;;;;;;;;;;;;;26.81;28.40;99211.56;5021524;28;1495;-11
2023/03/27 11:56:09;;;;;;;;;;;;;;;26.74;28.41;99195.44;4997353;28;1301;-11
2023/03/27 11:58:41;;;;;;;;;;;;;;;26.85;27.98;99199.31;5038295;28;1430;-11
2023/03/27 12:01:17;;;;;;;;;;;;;;;27.00;27.99;99193.59;5021306;28;1231;-11
2023/03/27 12:03:42;;;;;;;;;;;;;;;26.63;28.38;99179.94;5013127;28;1977;-11
2023/03/27 12:06:16;;;;;;;;;;;;;;;26.70;28.21;99172.66;5030588;28;1620;-11
2023/03/27 12:08:50;;;;;;;;;;;;;;;25.94;29.11;99167.03;5017586;28;1376;-11
2023/03/27 12:11:16;;;;;;;;;;;;;;;25.85;29.72;99174.53;5026985;28;1248;-11
2023/03/27 12:13:49;;;;;;;;;;;;;;;27.00;27.50;99176.56;5033344;28;1415;-11
2023/03/27 12:16:40;;;;;;;;;;;;;;;26.65;27.93;99167.09;5030149;28;1238;-12
2023/03/27 12:19:25;;;;;;;;;;;;;;;26.38;28.46;99157.31;5036409;28;1399;-11
2023/03/27 12:22:09;;;;;;;;;;;;;;;26.75;27.65;99159.34;5035452;28;1243;-11
2023/03/27 12:24:54;;;;;;;;;;;;;;;26.78;27.36;99150.81;5027495;28;1906;-11
2023/03/27 12:27:48;;;;;;;;;;;;;;;26.62;27.91;99145.94;5057150;28;1181;-11
2023/03/27 12:30:51;;;;;;;;;;;;;;;26.22;28.17;99134.38;5022619;28;2260;-11
2023/03/27 12:33:27;;;;;;;;;;;;;;;26.86;27.36;99119.22;5027409;28;1314;-11
2023/03/27 12:35:53;;;;;;;;;;;;;;;26.40;27.92;99112.09;5040498;28;1246;-12
2023/03/27 12:38:21;;;;;;;;;;;;;;;26.56;27.72;99103.69;5023190;28;1352;-11
2023/03/27 12:40:49;;;;;;;;;;;;;;;26.67;27.51;99094.88;5038588;28;1304;-11
2023/03/27 12:43:22;;;;;;;;;;;;;;;27.00;27.02;99091.06;5020926;28;1898;-11
2023/03/27 12:46:09;;;;;;;;;;;;;;;26.85;27.28;99090.56;5033342;28;1098;-11
2023/03/27 12:48:44;;;;;;;;;;;;;;;26.41;28.09;99107.50;5047803;28;1108;-11
2023/03/27 12:51:12;;;;;;;;;;;;;;;26.24;28.69;99110.69;5040367;28;1159;-11
2023/03/27 12:53:38;;;;;;;;;;;;;;;26.71;27.72;99120.34;5040354;28;2138;-11
2023/03/27 12:56:11;;;;;;;;;;;;;;;26.61;27.92;99110.06;5023831;28;1147;-11
2023/03/27 12:58:37;;;;;;;;;;;;;;;26.60;27.92;99116.50;5050040;28;898;-11
2023/03/27 13:01:21;;;;;;;;;;;;;;;27.08;27.79;99118.81;5042166;28;934;-11
2023/03/27 13:03:59;;;;;;;;;;;;;;;27.22;27.08;99114.94;5024696;28;1982;-11
2023/03/27 13:06:31;;;;;;;;;;;;;;;27.02;27.43;99123.25;5020343;28;1181;-12
2023/03/27 13:09:02;;;;;;;;;;;;;;;26.87;27.95;99113.59;5019689;28;1353;-11
2023/03/27 13:11:56;;;;;;;;;;;;;;;26.94;27.23;99126.19;5020190;28;1421;-11
2023/03/27 13:14:43;;;;;;;;;;;;;;;26.93;27.65;99102.94;5039635;28;1256;-11
2023/03/27 13:17:23;;;;;;;;;;;;;;;26.49;28.05;99109.13;5035571;28;1327;-11
2023/03/27 13:19:55;;;;;;;;;;;;;;;26.38;28.52;99091.78;5004319;28;1033;-12
2023/03/27 13:22:27;;;;;;;;;;;;;;;27.00;27.56;99103.72;5030477;28;1274;-11
2023/03/27 13:25:07;;;;;;;;;;;;;;;26.95;27.48;99096.28;5031181;28;1909;-11
2023/03/27 13:28:11;;;;;;;;;;;;;;;26.47;28.52;99097.72;5039085;28;1316;-11
2023/03/27 13:30:51;;;;;;;;;;;;;;;26.51;28.01;99097.06;4986629;28;1253;-11